PTTBR SBIL-SBRF
Flight info
| Callsign | PTTBR |
|---|---|
| Flight time | 1h 12m |
| Altitude | 45000 |
| Route | DOPRU UZ73 ESMOX UZ14 GERSO UZ42 ANBEX |
| Aircraft | C750/M-SBDE3FGHRWXY/S |
Departure
| Time | 2026-04-22 00:51 |
|---|---|
| Airport | Bahia - Jorge Amado Airport (SBIL) |
Arrival
| Time | 2026-04-22 02:03 |
|---|---|
| Airport | Recife/Guararapes - Gilberto Freyre International Airport (SBRF) |
| Time | Latitude | Longitude | Altitude | Speed | Heading |
|---|---|---|---|---|---|
| 2026-04-22 00:16 | -14.81439 | -39.03166 | 16 ft | 0 kts | 309° |
| 2026-04-22 00:44 | -14.81451 | -39.03154 | 16 ft | 4 kts | 336° |
| 2026-04-22 00:45 | -14.81473 | -39.03152 | 15 ft | 4 kts | 38° |
| 2026-04-22 00:45 | -14.81482 | -39.03167 | 15 ft | 0 kts | 89° |
| 2026-04-22 00:48 | -14.81482 | -39.03158 | 15 ft | 3 kts | 89° |
| 2026-04-22 00:48 | -14.81482 | -39.03115 | 15 ft | 8 kts | 90° |
| 2026-04-22 00:48 | -14.81508 | -39.03085 | 15 ft | 4 kts | 181° |
| 2026-04-22 00:48 | -14.81544 | -39.03082 | 15 ft | 6 kts | 168° |
| 2026-04-22 00:49 | -14.81582 | -39.03037 | 14 ft | 12 kts | 100° |
| 2026-04-22 00:49 | -14.81581 | -39.02927 | 15 ft | 18 kts | 89° |
| 2026-04-22 00:49 | -14.81578 | -39.02781 | 15 ft | 21 kts | 89° |
| 2026-04-22 00:49 | -14.81592 | -39.02658 | 16 ft | 16 kts | 122° |
| 2026-04-22 00:50 | -14.81573 | -39.02609 | 17 ft | 7 kts | 291° |
| 2026-04-22 00:50 | -14.81573 | -39.02628 | 17 ft | 0 kts | 266° |
| 2026-04-22 00:50 | -14.81573 | -39.02634 | 17 ft | 6 kts | 266° |
| 2026-04-22 00:50 | -14.81584 | -39.02982 | 15 ft | 106 kts | 268° |
| 2026-04-22 00:51 | -14.81606 | -39.03980 | 221 ft | 152 kts | 268° |
| 2026-04-22 00:51 | -14.81614 | -39.05072 | 989 ft | 153 kts | 269° |
| 2026-04-22 00:51 | -14.81296 | -39.06242 | 1168 ft | 197 kts | 300° |
| 2026-04-22 00:51 | -14.80194 | -39.07268 | 1583 ft | 233 kts | 332° |
| 2026-04-22 00:52 | -14.78492 | -39.07464 | 2040 ft | 267 kts | 11° |
| 2026-04-22 00:52 | -14.76934 | -39.06440 | 2996 ft | 270 kts | 52° |
| 2026-04-22 00:52 | -14.76020 | -39.04768 | 4088 ft | 267 kts | 69° |
| 2026-04-22 00:52 | -14.75316 | -39.03000 | 5238 ft | 265 kts | 71° |
| 2026-04-22 00:53 | -14.74576 | -39.01247 | 6258 ft | 269 kts | 67° |
| 2026-04-22 00:53 | -14.73716 | -38.99501 | 7165 ft | 275 kts | 64° |
| 2026-04-22 00:53 | -14.72832 | -38.97731 | 8180 ft | 279 kts | 66° |
| 2026-04-22 00:53 | -14.71969 | -38.95914 | 9215 ft | 284 kts | 66° |
| 2026-04-22 00:54 | -14.71096 | -38.94059 | 10129 ft | 290 kts | 65° |
| 2026-04-22 00:54 | -14.70171 | -38.92127 | 10557 ft | 313 kts | 64° |
| 2026-04-22 00:54 | -14.69161 | -38.90031 | 10702 ft | 340 kts | 64° |
| 2026-04-22 00:54 | -14.68076 | -38.87769 | 10985 ft | 358 kts | 64° |
| 2026-04-22 00:55 | -14.66971 | -38.85460 | 11845 ft | 359 kts | 64° |
| 2026-04-22 00:55 | -14.65856 | -38.83136 | 12533 ft | 364 kts | 64° |
| 2026-04-22 00:55 | -14.63580 | -38.78392 | 13898 ft | 372 kts | 64° |
| 2026-04-22 00:56 | -14.62275 | -38.76069 | 14424 ft | 379 kts | 52° |
| 2026-04-22 00:56 | -14.60246 | -38.74326 | 15051 ft | 382 kts | 30° |
| 2026-04-22 00:56 | -14.57811 | -38.73307 | 15675 ft | 385 kts | 18° |
| 2026-04-22 00:56 | -14.55238 | -38.72497 | 16330 ft | 388 kts | 16° |
| 2026-04-22 00:57 | -14.52631 | -38.71698 | 16961 ft | 393 kts | 16° |
| 2026-04-22 00:57 | -14.50011 | -38.70844 | 17595 ft | 397 kts | 17° |
| 2026-04-22 00:57 | -14.47358 | -38.69961 | 18254 ft | 401 kts | 17° |
| 2026-04-22 00:57 | -14.44675 | -38.69095 | 18907 ft | 406 kts | 17° |
| 2026-04-22 00:58 | -14.41963 | -38.68231 | 19576 ft | 410 kts | 17° |
| 2026-04-22 00:58 | -14.39223 | -38.67346 | 20219 ft | 415 kts | 17° |
| 2026-04-22 00:58 | -14.36458 | -38.66445 | 20857 ft | 419 kts | 18° |
| 2026-04-22 00:58 | -14.33656 | -38.65538 | 21474 ft | 425 kts | 17° |
| 2026-04-22 00:59 | -14.30820 | -38.64627 | 22086 ft | 429 kts | 17° |
| 2026-04-22 00:59 | -14.27954 | -38.63703 | 22715 ft | 433 kts | 18° |
| 2026-04-22 00:59 | -14.25061 | -38.62765 | 23314 ft | 438 kts | 18° |
| 2026-04-22 00:59 | -14.22136 | -38.61821 | 23892 ft | 443 kts | 18° |
| 2026-04-22 01:00 | -14.19180 | -38.60869 | 24456 ft | 447 kts | 18° |
| 2026-04-22 01:00 | -14.16201 | -38.59909 | 25076 ft | 450 kts | 18° |
| 2026-04-22 01:00 | -14.13195 | -38.58938 | 25626 ft | 455 kts | 18° |
| 2026-04-22 01:00 | -14.10162 | -38.57959 | 26202 ft | 459 kts | 18° |
| 2026-04-22 01:01 | -14.07101 | -38.56974 | 26768 ft | 462 kts | 18° |
| 2026-04-22 01:01 | -14.04018 | -38.55980 | 27320 ft | 466 kts | 18° |
| 2026-04-22 01:01 | -14.00911 | -38.54979 | 27847 ft | 470 kts | 18° |
| 2026-04-22 01:01 | -13.97771 | -38.53968 | 28376 ft | 474 kts | 18° |
| 2026-04-22 01:02 | -13.94620 | -38.52953 | 28930 ft | 476 kts | 18° |
| 2026-04-22 01:02 | -13.91442 | -38.51931 | 29398 ft | 480 kts | 18° |
| 2026-04-22 01:02 | -13.88229 | -38.50944 | 29820 ft | 484 kts | 15° |
| 2026-04-22 01:02 | -13.84996 | -38.50083 | 30282 ft | 487 kts | 14° |
| 2026-04-22 01:03 | -13.81702 | -38.49204 | 30743 ft | 490 kts | 15° |
| 2026-04-22 01:03 | -13.78401 | -38.48306 | 31261 ft | 491 kts | 15° |
| 2026-04-22 01:03 | -13.75114 | -38.47410 | 31979 ft | 487 kts | 14° |
| 2026-04-22 01:03 | -13.71846 | -38.46533 | 32644 ft | 484 kts | 14° |
| 2026-04-22 01:04 | -13.68598 | -38.45662 | 33287 ft | 481 kts | 13° |
| 2026-04-22 01:04 | -13.65370 | -38.44791 | 33934 ft | 478 kts | 13° |
| 2026-04-22 01:04 | -13.62161 | -38.43922 | 34559 ft | 476 kts | 13° |
| 2026-04-22 01:04 | -13.58961 | -38.43060 | 35129 ft | 474 kts | 13° |
| 2026-04-22 01:05 | -13.55767 | -38.42202 | 35683 ft | 473 kts | 13° |
| 2026-04-22 01:05 | -13.52587 | -38.41346 | 36228 ft | 472 kts | 13° |
| 2026-04-22 01:05 | -13.49411 | -38.40490 | 36736 ft | 472 kts | 13° |
| 2026-04-22 01:05 | -13.46232 | -38.39635 | 37280 ft | 471 kts | 13° |
| 2026-04-22 01:06 | -13.43076 | -38.38787 | 37889 ft | 468 kts | 13° |
| 2026-04-22 01:06 | -13.39936 | -38.37941 | 38486 ft | 465 kts | 13° |
| 2026-04-22 01:06 | -13.36815 | -38.37102 | 39092 ft | 463 kts | 13° |
| 2026-04-22 01:06 | -13.33702 | -38.36266 | 39607 ft | 462 kts | 13° |
| 2026-04-22 01:07 | -13.30596 | -38.35431 | 40054 ft | 461 kts | 13° |
| 2026-04-22 01:07 | -13.27491 | -38.34597 | 40496 ft | 461 kts | 13° |
| 2026-04-22 01:07 | -13.24387 | -38.33763 | 40932 ft | 461 kts | 13° |
| 2026-04-22 01:07 | -13.21284 | -38.32930 | 41357 ft | 460 kts | 13° |
| 2026-04-22 01:08 | -13.18190 | -38.32100 | 41761 ft | 460 kts | 13° |
| 2026-04-22 01:08 | -13.15100 | -38.31270 | 42151 ft | 459 kts | 13° |
| 2026-04-22 01:08 | -13.12010 | -38.30440 | 42536 ft | 459 kts | 13° |
| 2026-04-22 01:08 | -13.08985 | -38.29367 | 42846 ft | 461 kts | 22° |
| 2026-04-22 01:09 | -13.06162 | -38.27787 | 43199 ft | 462 kts | 32° |
| 2026-04-22 01:09 | -13.03559 | -38.25859 | 43556 ft | 462 kts | 36° |
| 2026-04-22 01:09 | -13.01079 | -38.23830 | 43881 ft | 461 kts | 37° |
| 2026-04-22 01:09 | -12.98533 | -38.21837 | 44187 ft | 461 kts | 34° |
| 2026-04-22 01:10 | -12.95888 | -38.19983 | 44486 ft | 460 kts | 32° |
| 2026-04-22 01:10 | -12.93249 | -38.18126 | 44757 ft | 460 kts | 34° |
| 2026-04-22 01:10 | -12.90672 | -38.16182 | 45017 ft | 461 kts | 35° |
| 2026-04-22 01:10 | -12.88077 | -38.14211 | 45014 ft | 467 kts | 34° |
| 2026-04-22 01:11 | -12.82701 | -38.10311 | 45023 ft | 479 kts | 34° |
| 2026-04-22 01:11 | -12.77232 | -38.06255 | 45023 ft | 491 kts | 34° |
| 2026-04-22 01:12 | -12.71623 | -38.02144 | 45026 ft | 501 kts | 34° |
| 2026-04-22 01:12 | -12.65944 | -37.97962 | 45025 ft | 503 kts | 34° |
| 2026-04-22 01:13 | -12.60257 | -37.93787 | 45024 ft | 502 kts | 33° |
| 2026-04-22 01:13 | -12.54578 | -37.89616 | 45022 ft | 503 kts | 33° |
| 2026-04-22 01:14 | -12.48902 | -37.85450 | 45023 ft | 502 kts | 33° |
| 2026-04-22 01:14 | -12.43221 | -37.81284 | 45023 ft | 501 kts | 33° |
| 2026-04-22 01:15 | -12.37552 | -37.77128 | 45026 ft | 502 kts | 33° |
| 2026-04-22 01:15 | -12.31873 | -37.72968 | 45026 ft | 502 kts | 33° |
| 2026-04-22 01:16 | -12.26237 | -37.68841 | 45026 ft | 501 kts | 33° |
| 2026-04-22 01:16 | -12.20567 | -37.64691 | 45027 ft | 501 kts | 33° |
| 2026-04-22 01:17 | -12.14894 | -37.60542 | 45027 ft | 501 kts | 33° |
| 2026-04-22 01:17 | -12.09219 | -37.56393 | 45027 ft | 501 kts | 33° |
| 2026-04-22 01:18 | -12.03543 | -37.52244 | 45027 ft | 501 kts | 33° |
| 2026-04-22 01:18 | -11.97866 | -37.48098 | 45027 ft | 502 kts | 33° |
| 2026-04-22 01:19 | -11.92196 | -37.43960 | 45028 ft | 501 kts | 33° |
| 2026-04-22 01:19 | -11.86521 | -37.39848 | 45028 ft | 500 kts | 33° |
| 2026-04-22 01:20 | -11.80870 | -37.35755 | 45028 ft | 501 kts | 33° |
| 2026-04-22 01:20 | -11.75185 | -37.31638 | 45028 ft | 501 kts | 33° |
| 2026-04-22 01:21 | -11.69500 | -37.27525 | 45029 ft | 501 kts | 33° |
| 2026-04-22 01:21 | -11.63810 | -37.23408 | 45028 ft | 501 kts | 33° |
| 2026-04-22 01:22 | -11.58103 | -37.19284 | 45031 ft | 504 kts | 33° |
| 2026-04-22 01:22 | -11.52387 | -37.15152 | 45020 ft | 503 kts | 33° |
| 2026-04-22 01:23 | -11.46673 | -37.11027 | 45020 ft | 503 kts | 33° |
| 2026-04-22 01:23 | -11.40960 | -37.06903 | 45020 ft | 504 kts | 33° |
| 2026-04-22 01:24 | -11.35243 | -37.02778 | 45020 ft | 504 kts | 33° |
| 2026-04-22 01:24 | -11.29525 | -36.98655 | 45020 ft | 504 kts | 33° |
| 2026-04-22 01:25 | -11.24768 | -36.95226 | 45020 ft | 503 kts | 33° |
| 2026-04-22 01:25 | -11.19047 | -36.91105 | 45020 ft | 503 kts | 33° |
| 2026-04-22 01:26 | -11.13329 | -36.86987 | 45021 ft | 503 kts | 33° |
| 2026-04-22 01:26 | -11.07609 | -36.82870 | 45021 ft | 503 kts | 33° |
| 2026-04-22 01:27 | -11.01892 | -36.78758 | 45022 ft | 503 kts | 33° |
| 2026-04-22 01:27 | -10.96172 | -36.74645 | 45022 ft | 503 kts | 33° |
| 2026-04-22 01:28 | -10.90456 | -36.70538 | 45022 ft | 503 kts | 33° |
| 2026-04-22 01:28 | -10.84740 | -36.66432 | 45022 ft | 503 kts | 33° |
| 2026-04-22 01:29 | -10.78673 | -36.62964 | 45017 ft | 500 kts | 23° |
| 2026-04-22 01:29 | -10.72398 | -36.59903 | 45022 ft | 501 kts | 25° |
| 2026-04-22 01:30 | -10.66185 | -36.56704 | 45028 ft | 500 kts | 24° |
| 2026-04-22 01:30 | -10.59936 | -36.53606 | 45028 ft | 500 kts | 25° |
| 2026-04-22 01:31 | -10.53700 | -36.50439 | 45028 ft | 500 kts | 25° |
| 2026-04-22 01:31 | -10.47503 | -36.47340 | 45028 ft | 500 kts | 25° |
| 2026-04-22 01:32 | -10.41265 | -36.44194 | 45028 ft | 500 kts | 25° |
| 2026-04-22 01:32 | -10.35028 | -36.41067 | 45029 ft | 500 kts | 25° |
| 2026-04-22 01:33 | -10.28793 | -36.37932 | 45029 ft | 500 kts | 25° |
| 2026-04-22 01:33 | -10.22553 | -36.34802 | 45029 ft | 500 kts | 25° |
| 2026-04-22 01:34 | -10.16317 | -36.31672 | 45030 ft | 500 kts | 25° |
| 2026-04-22 01:34 | -10.10120 | -36.28565 | 45029 ft | 500 kts | 25° |
| 2026-04-22 01:35 | -10.03879 | -36.25436 | 45029 ft | 500 kts | 25° |
| 2026-04-22 01:35 | -9.97642 | -36.22311 | 45030 ft | 500 kts | 25° |
| 2026-04-22 01:36 | -9.91570 | -36.19270 | 45030 ft | 500 kts | 25° |
| 2026-04-22 01:36 | -9.85240 | -36.16101 | 45024 ft | 500 kts | 25° |
| 2026-04-22 01:37 | -9.79004 | -36.12980 | 45021 ft | 500 kts | 25° |
| 2026-04-22 01:37 | -9.72769 | -36.09861 | 45025 ft | 500 kts | 25° |
| 2026-04-22 01:38 | -9.67072 | -36.07013 | 45018 ft | 500 kts | 25° |
| 2026-04-22 01:38 | -9.60843 | -36.03899 | 45012 ft | 499 kts | 25° |
| 2026-04-22 01:39 | -9.54651 | -36.00804 | 44392 ft | 491 kts | 25° |
| 2026-04-22 01:39 | -9.51610 | -35.99285 | 43657 ft | 483 kts | 25° |
| 2026-04-22 01:39 | -9.48614 | -35.97790 | 42925 ft | 475 kts | 25° |
| 2026-04-22 01:40 | -9.45675 | -35.96323 | 42207 ft | 467 kts | 25° |
| 2026-04-22 01:40 | -9.42789 | -35.94881 | 41500 ft | 459 kts | 25° |
| 2026-04-22 01:40 | -9.39954 | -35.93466 | 40806 ft | 450 kts | 25° |
| 2026-04-22 01:40 | -9.37169 | -35.92077 | 40122 ft | 442 kts | 24° |
| 2026-04-22 01:41 | -9.34422 | -35.90707 | 39458 ft | 439 kts | 24° |
| 2026-04-22 01:41 | -9.31689 | -35.89344 | 38789 ft | 438 kts | 24° |
| 2026-04-22 01:41 | -9.28950 | -35.87976 | 38120 ft | 439 kts | 24° |
| 2026-04-22 01:41 | -9.26241 | -35.86627 | 37460 ft | 440 kts | 24° |
| 2026-04-22 01:42 | -9.23491 | -35.85256 | 36791 ft | 440 kts | 24° |
| 2026-04-22 01:42 | -9.20746 | -35.83887 | 36117 ft | 441 kts | 25° |
| 2026-04-22 01:42 | -9.17981 | -35.82509 | 35445 ft | 445 kts | 25° |
| 2026-04-22 01:42 | -9.15193 | -35.81120 | 34762 ft | 448 kts | 25° |
| 2026-04-22 01:43 | -9.12383 | -35.79721 | 34076 ft | 451 kts | 25° |
| 2026-04-22 01:43 | -9.09556 | -35.78311 | 33362 ft | 454 kts | 25° |
| 2026-04-22 01:43 | -9.06707 | -35.76892 | 32666 ft | 458 kts | 25° |
| 2026-04-22 01:43 | -9.03836 | -35.75463 | 31969 ft | 462 kts | 25° |
| 2026-04-22 01:44 | -9.01106 | -35.73722 | 31240 ft | 469 kts | 37° |
| 2026-04-22 01:44 | -8.98686 | -35.71479 | 30553 ft | 476 kts | 41° |
| 2026-04-22 01:44 | -8.96306 | -35.69174 | 29824 ft | 471 kts | 42° |
| 2026-04-22 01:44 | -8.93942 | -35.66893 | 29114 ft | 468 kts | 41° |
| 2026-04-22 01:45 | -8.91571 | -35.64650 | 28402 ft | 464 kts | 41° |
| 2026-04-22 01:45 | -8.89224 | -35.62432 | 27699 ft | 460 kts | 41° |
| 2026-04-22 01:45 | -8.86912 | -35.60220 | 27004 ft | 456 kts | 42° |
| 2026-04-22 01:45 | -8.84619 | -35.58022 | 26315 ft | 452 kts | 42° |
| 2026-04-22 01:46 | -8.82339 | -35.55852 | 25624 ft | 448 kts | 42° |
| 2026-04-22 01:46 | -8.80077 | -35.53705 | 24954 ft | 444 kts | 42° |
| 2026-04-22 01:46 | -8.77836 | -35.51570 | 24282 ft | 441 kts | 43° |
| 2026-04-22 01:46 | -8.75612 | -35.49448 | 23615 ft | 438 kts | 43° |
| 2026-04-22 01:47 | -8.73408 | -35.47348 | 22954 ft | 433 kts | 43° |
| 2026-04-22 01:47 | -8.71254 | -35.45299 | 22309 ft | 429 kts | 43° |
| 2026-04-22 01:47 | -8.69094 | -35.43245 | 21663 ft | 424 kts | 43° |
| 2026-04-22 01:47 | -8.66954 | -35.41210 | 21023 ft | 420 kts | 43° |
| 2026-04-22 01:48 | -8.64834 | -35.39198 | 20376 ft | 417 kts | 43° |
| 2026-04-22 01:48 | -8.62728 | -35.37202 | 19755 ft | 412 kts | 44° |
| 2026-04-22 01:48 | -8.60646 | -35.35225 | 19136 ft | 408 kts | 44° |
| 2026-04-22 01:48 | -8.58583 | -35.33267 | 18511 ft | 405 kts | 44° |
| 2026-04-22 01:49 | -8.56536 | -35.31328 | 17897 ft | 401 kts | 44° |
| 2026-04-22 01:49 | -8.54512 | -35.29408 | 17287 ft | 397 kts | 44° |
| 2026-04-22 01:49 | -8.52508 | -35.27505 | 16692 ft | 394 kts | 44° |
| 2026-04-22 01:49 | -8.50516 | -35.25616 | 16095 ft | 390 kts | 44° |
| 2026-04-22 01:50 | -8.48548 | -35.23752 | 15508 ft | 387 kts | 44° |
| 2026-04-22 01:50 | -8.46597 | -35.21903 | 14925 ft | 383 kts | 44° |
| 2026-04-22 01:50 | -8.44661 | -35.20068 | 14347 ft | 379 kts | 44° |
| 2026-04-22 01:50 | -8.42746 | -35.18252 | 13772 ft | 376 kts | 44° |
| 2026-04-22 01:51 | -8.40846 | -35.16453 | 13209 ft | 372 kts | 44° |
| 2026-04-22 01:51 | -8.38961 | -35.14674 | 12643 ft | 370 kts | 44° |
| 2026-04-22 01:51 | -8.37092 | -35.12913 | 12079 ft | 366 kts | 44° |
| 2026-04-22 01:51 | -8.35235 | -35.11166 | 11525 ft | 363 kts | 44° |
| 2026-04-22 01:52 | -8.33440 | -35.09482 | 10987 ft | 341 kts | 45° |
| 2026-04-22 01:52 | -8.31747 | -35.07902 | 10487 ft | 322 kts | 45° |
| 2026-04-22 01:52 | -8.30139 | -35.06410 | 10016 ft | 306 kts | 45° |
| 2026-04-22 01:52 | -8.28593 | -35.04983 | 9559 ft | 298 kts | 45° |
| 2026-04-22 01:53 | -8.27080 | -35.03586 | 9119 ft | 294 kts | 45° |
| 2026-04-22 01:53 | -8.25577 | -35.02200 | 8733 ft | 291 kts | 45° |
| 2026-04-22 01:53 | -8.24086 | -35.00834 | 8356 ft | 289 kts | 45° |
| 2026-04-22 01:53 | -8.22618 | -34.99492 | 7984 ft | 287 kts | 45° |
| 2026-04-22 01:54 | -8.21148 | -34.98152 | 7611 ft | 280 kts | 45° |
| 2026-04-22 01:54 | -8.19735 | -34.96872 | 7490 ft | 268 kts | 44° |
| 2026-04-22 01:54 | -8.18330 | -34.95606 | 7492 ft | 272 kts | 44° |
| 2026-04-22 01:54 | -8.16908 | -34.94328 | 7498 ft | 274 kts | 44° |
| 2026-04-22 01:55 | -8.15370 | -34.93115 | 7189 ft | 290 kts | 30° |
| 2026-04-22 01:55 | -8.13415 | -34.92742 | 6765 ft | 291 kts | 356° |
| 2026-04-22 01:55 | -8.11563 | -34.93505 | 6400 ft | 291 kts | 323° |
| 2026-04-22 01:55 | -8.10237 | -34.95030 | 6092 ft | 290 kts | 306° |
| 2026-04-22 01:56 | -8.09062 | -34.96696 | 5699 ft | 291 kts | 307° |
| 2026-04-22 01:56 | -8.07725 | -34.98222 | 5255 ft | 289 kts | 315° |
| 2026-04-22 01:56 | -8.06287 | -34.99597 | 4836 ft | 280 kts | 317° |
| 2026-04-22 01:56 | -8.04927 | -35.00949 | 4422 ft | 270 kts | 314° |
| 2026-04-22 01:57 | -8.03654 | -35.02305 | 4031 ft | 261 kts | 314° |
| 2026-04-22 01:57 | -8.02408 | -35.03597 | 3670 ft | 254 kts | 317° |
| 2026-04-22 01:57 | -8.00903 | -35.04450 | 3243 ft | 249 kts | 347° |
| 2026-04-22 01:57 | -7.99217 | -35.04431 | 2949 ft | 240 kts | 18° |
| 2026-04-22 01:58 | -7.97807 | -35.03654 | 2982 ft | 226 kts | 44° |
| 2026-04-22 01:58 | -7.96949 | -35.02405 | 2989 ft | 214 kts | 69° |
| 2026-04-22 01:58 | -7.96466 | -35.00973 | 2955 ft | 218 kts | 74° |
| 2026-04-22 01:58 | -7.96237 | -34.99475 | 2743 ft | 218 kts | 98° |
| 2026-04-22 01:59 | -7.96799 | -34.98090 | 2558 ft | 215 kts | 126° |
| 2026-04-22 01:59 | -7.97959 | -34.97172 | 2373 ft | 215 kts | 155° |
| 2026-04-22 01:59 | -7.99328 | -34.96722 | 2226 ft | 192 kts | 163° |
| 2026-04-22 01:59 | -8.00478 | -34.96353 | 2064 ft | 157 kts | 162° |
| 2026-04-22 02:00 | -8.01418 | -34.96040 | 1907 ft | 131 kts | 162° |
| 2026-04-22 02:00 | -8.02258 | -34.95760 | 1800 ft | 125 kts | 162° |
| 2026-04-22 02:00 | -8.03080 | -34.95485 | 1710 ft | 125 kts | 162° |
| 2026-04-22 02:00 | -8.03905 | -34.95213 | 1587 ft | 127 kts | 162° |
| 2026-04-22 02:01 | -8.04744 | -34.94936 | 1421 ft | 127 kts | 163° |
| 2026-04-22 02:01 | -8.05583 | -34.94658 | 1253 ft | 126 kts | 163° |
| 2026-04-22 02:01 | -8.06420 | -34.94380 | 1086 ft | 127 kts | 163° |
| 2026-04-22 02:01 | -8.07255 | -34.94103 | 916 ft | 126 kts | 163° |
| 2026-04-22 02:02 | -8.08085 | -34.93828 | 750 ft | 126 kts | 163° |
| 2026-04-22 02:02 | -8.08905 | -34.93553 | 587 ft | 126 kts | 163° |
| 2026-04-22 02:02 | -8.09735 | -34.93278 | 411 ft | 125 kts | 163° |
| 2026-04-22 02:02 | -8.10556 | -34.92998 | 266 ft | 123 kts | 162° |
| 2026-04-22 02:03 | -8.11370 | -34.92730 | 128 ft | 122 kts | 163° |
| 2026-04-22 02:03 | -8.12159 | -34.92478 | 35 ft | 111 kts | 163° |
| 2026-04-22 02:03 | -8.12721 | -34.92287 | 37 ft | 57 kts | 161° |
| 2026-04-22 02:03 | -8.13080 | -34.92170 | 35 ft | 47 kts | 162° |
| 2026-04-22 02:04 | -8.13283 | -34.92023 | 33 ft | 9 kts | 131° |
| 2026-04-22 02:04 | -8.13281 | -34.91974 | 34 ft | 7 kts | 52° |
| 2026-04-22 02:04 | -8.13241 | -34.91966 | 34 ft | 6 kts | 342° |
| 2026-04-22 02:05 | -8.13202 | -34.91980 | 34 ft | 6 kts | 340° |
| 2026-04-22 02:05 | -8.13163 | -34.91994 | 34 ft | 6 kts | 340° |
| 2026-04-22 02:05 | -8.13122 | -34.92008 | 34 ft | 8 kts | 343° |
| 2026-04-22 02:05 | -8.13052 | -34.92029 | 34 ft | 13 kts | 343° |
| 2026-04-22 02:06 | -8.12950 | -34.92062 | 34 ft | 17 kts | 342° |
| 2026-04-22 02:06 | -8.12836 | -34.92101 | 34 ft | 17 kts | 341° |
| 2026-04-22 02:06 | -8.12733 | -34.92135 | 34 ft | 15 kts | 341° |
| 2026-04-22 02:06 | -8.12636 | -34.92169 | 34 ft | 15 kts | 341° |
| 2026-04-22 02:07 | -8.12551 | -34.92218 | 35 ft | 14 kts | 313° |
| 2026-04-22 02:07 | -8.12498 | -34.92294 | 35 ft | 13 kts | 304° |
| 2026-04-22 02:07 | -8.12449 | -34.92368 | 35 ft | 12 kts | 304° |
| 2026-04-22 02:07 | -8.12400 | -34.92438 | 35 ft | 12 kts | 305° |
| 2026-04-22 02:08 | -8.12351 | -34.92508 | 34 ft | 9 kts | 305° |
| 2026-04-22 02:08 | -8.12314 | -34.92561 | 34 ft | 9 kts | 305° |
| 2026-04-22 02:08 | -8.12278 | -34.92613 | 34 ft | 9 kts | 304° |
| 2026-04-22 02:08 | -8.12244 | -34.92664 | 34 ft | 9 kts | 305° |
| 2026-04-22 02:09 | -8.12210 | -34.92713 | 34 ft | 8 kts | 304° |
| 2026-04-22 02:09 | -8.12185 | -34.92750 | 34 ft | 0 kts | 304° |
| 2026-04-22 02:10 | -8.12170 | -34.92772 | 34 ft | 8 kts | 304° |
| 2026-04-22 02:10 | -8.12137 | -34.92813 | 34 ft | 5 kts | 336° |
| 2026-04-22 02:10 | -8.12117 | -34.92808 | 34 ft | 0 kts | 34° |